sensor_id;sensor_type;location;lat;lon;timestamp;P1;durP1;ratioP1;P2;durP2;ratioP2
17818;SDS011;9034;50.284;19.310;2022-07-17T00:01:02;17.80;;;5.00;;
17818;SDS011;9034;50.284;19.310;2022-07-17T00:02:05;20.83;;;5.68;;
17818;SDS011;9034;50.284;19.310;2022-07-17T00:03:09;22.30;;;5.88;;
17818;SDS011;9034;50.284;19.310;2022-07-17T00:04:15;6.63;;;4.50;;
17818;SDS011;9034;50.284;19.310;2022-07-17T00:05:21;9.02;;;5.40;;
17818;SDS011;9034;50.284;19.310;2022-07-17T00:06:24;7.97;;;6.32;;
17818;SDS011;9034;50.284;19.310;2022-07-17T00:07:28;18.73;;;6.22;;
17818;SDS011;9034;50.284;19.310;2022-07-17T00:08:31;10.07;;;4.80;;
17818;SDS011;9034;50.284;19.310;2022-07-17T00:09:36;7.93;;;4.65;;
17818;SDS011;9034;50.284;19.310;2022-07-17T00:10:41;14.75;;;4.65;;
17818;SDS011;9034;50.284;19.310;2022-07-17T00:11:45;7.82;;;4.22;;
17818;SDS011;9034;50.284;19.310;2022-07-17T00:12:48;4.43;;;3.80;;
17818;SDS011;9034;50.284;19.310;2022-07-17T00:13:53;5.45;;;3.88;;
17818;SDS011;9034;50.284;19.310;2022-07-17T00:14:56;7.32;;;4.53;;
17818;SDS011;9034;50.284;19.310;2022-07-17T00:16:01;6.25;;;4.50;;
17818;SDS011;9034;50.284;19.310;2022-07-17T00:17:04;5.82;;;4.55;;
17818;SDS011;9034;50.284;19.310;2022-07-17T00:18:08;9.93;;;4.65;;
17818;SDS011;9034;50.284;19.310;2022-07-17T00:19:11;6.28;;;3.80;;
17818;SDS011;9034;50.284;19.310;2022-07-17T00:20:17;27.85;;;4.82;;
17818;SDS011;9034;50.284;19.310;2022-07-17T00:21:20;4.78;;;4.15;;
17818;SDS011;9034;50.284;19.310;2022-07-17T00:22:24;5.40;;;4.00;;
17818;SDS011;9034;50.284;19.310;2022-07-17T00:23:27;8.75;;;3.70;;
17818;SDS011;9034;50.284;19.310;2022-07-17T00:24:31;9.63;;;6.43;;
17818;SDS011;9034;50.284;19.310;2022-07-17T00:27:15;5.10;;;4.30;;
17818;SDS011;9034;50.284;19.310;2022-07-17T00:28:18;6.50;;;4.93;;
17818;SDS011;9034;50.284;19.310;2022-07-17T00:29:22;8.70;;;5.13;;
17818;SDS011;9034;50.284;19.310;2022-07-17T00:30:26;6.25;;;4.80;;
17818;SDS011;9034;50.284;19.310;2022-07-17T00:31:29;5.93;;;4.63;;
17818;SDS011;9034;50.284;19.310;2022-07-17T00:32:34;7.10;;;3.83;;
17818;SDS011;9034;50.284;19.310;2022-07-17T00:33:37;10.50;;;3.97;;
17818;SDS011;9034;50.284;19.310;2022-07-17T00:34:41;5.13;;;4.30;;
17818;SDS011;9034;50.284;19.310;2022-07-17T00:35:46;6.13;;;4.00;;
17818;SDS011;9034;50.284;19.310;2022-07-17T00:36:50;4.95;;;4.38;;
17818;SDS011;9034;50.284;19.310;2022-07-17T00:37:53;6.43;;;4.07;;
17818;SDS011;9034;50.284;19.310;2022-07-17T00:38:57;5.35;;;4.47;;
17818;SDS011;9034;50.284;19.310;2022-07-17T00:40:00;4.80;;;3.65;;
17818;SDS011;9034;50.284;19.310;2022-07-17T00:41:05;4.82;;;3.78;;
17818;SDS011;9034;50.284;19.310;2022-07-17T00:42:10;6.38;;;4.25;;
17818;SDS011;9034;50.284;19.310;2022-07-17T00:43:15;6.82;;;4.22;;
17818;SDS011;9034;50.284;19.310;2022-07-17T00:44:19;9.35;;;4.03;;
17818;SDS011;9034;50.284;19.310;2022-07-17T00:45:22;11.32;;;3.63;;
17818;SDS011;9034;50.284;19.310;2022-07-17T00:46:27;44.53;;;4.85;;
17818;SDS011;9034;50.284;19.310;2022-07-17T00:47:31;3.53;;;3.22;;
17818;SDS011;9034;50.284;19.310;2022-07-17T00:48:35;13.18;;;3.72;;
17818;SDS011;9034;50.284;19.310;2022-07-17T00:49:39;7.93;;;3.00;;
17818;SDS011;9034;50.284;19.310;2022-07-17T00:50:43;6.43;;;2.60;;
17818;SDS011;9034;50.284;19.310;2022-07-17T00:51:48;5.68;;;3.20;;
17818;SDS011;9034;50.284;19.310;2022-07-17T00:52:52;4.35;;;2.70;;
17818;SDS011;9034;50.284;19.310;2022-07-17T00:53:55;16.15;;;4.47;;
17818;SDS011;9034;50.284;19.310;2022-07-17T00:55:08;12.63;;;3.03;;
17818;SDS011;9034;50.284;19.310;2022-07-17T00:56:31;6.82;;;2.08;;
17818;SDS011;9034;50.284;19.310;2022-07-17T00:57:36;2.53;;;2.33;;
17818;SDS011;9034;50.284;19.310;2022-07-17T00:58:42;2.30;;;2.10;;
17818;SDS011;9034;50.284;19.310;2022-07-17T00:59:47;1.95;;;1.60;;
17818;SDS011;9034;50.284;19.310;2022-07-17T01:00:51;7.38;;;3.35;;
17818;SDS011;9034;50.284;19.310;2022-07-17T01:01:56;2.30;;;2.10;;
17818;SDS011;9034;50.284;19.310;2022-07-17T01:02:59;2.47;;;2.10;;
17818;SDS011;9034;50.284;19.310;2022-07-17T01:04:05;4.53;;;2.50;;
17818;SDS011;9034;50.284;19.310;2022-07-17T01:05:08;3.63;;;2.30;;
17818;SDS011;9034;50.284;19.310;2022-07-17T01:06:21;9.00;;;3.63;;
17818;SDS011;9034;50.284;19.310;2022-07-17T01:07:26;4.18;;;2.70;;
17818;SDS011;9034;50.284;19.310;2022-07-17T01:08:30;3.47;;;2.40;;
17818;SDS011;9034;50.284;19.310;2022-07-17T01:09:34;3.30;;;2.78;;
17818;SDS011;9034;50.284;19.310;2022-07-17T01:10:38;4.35;;;2.70;;
17818;SDS011;9034;50.284;19.310;2022-07-17T01:11:42;2.97;;;2.70;;
17818;SDS011;9034;50.284;19.310;2022-07-17T01:12:46;3.15;;;2.55;;
17818;SDS011;9034;50.284;19.310;2022-07-17T01:13:50;4.05;;;2.65;;
17818;SDS011;9034;50.284;19.310;2022-07-17T01:14:57;20.48;;;4.93;;
17818;SDS011;9034;50.284;19.310;2022-07-17T01:16:01;4.30;;;2.75;;
17818;SDS011;9034;50.284;19.310;2022-07-17T01:17:06;4.20;;;3.38;;
17818;SDS011;9034;50.284;19.310;2022-07-17T01:18:09;3.08;;;2.78;;
17818;SDS011;9034;50.284;19.310;2022-07-17T01:19:15;2.80;;;2.47;;
17818;SDS011;9034;50.284;19.310;2022-07-17T01:20:18;14.95;;;2.63;;
17818;SDS011;9034;50.284;19.310;2022-07-17T01:21:23;3.53;;;2.25;;
17818;SDS011;9034;50.284;19.310;2022-07-17T01:22:27;3.35;;;2.75;;
17818;SDS011;9034;50.284;19.310;2022-07-17T01:23:31;2.25;;;2.05;;
17818;SDS011;9034;50.284;19.310;2022-07-17T01:24:38;3.90;;;2.10;;
17818;SDS011;9034;50.284;19.310;2022-07-17T01:25:42;2.42;;;2.22;;
17818;SDS011;9034;50.284;19.310;2022-07-17T01:26:46;6.32;;;2.30;;
17818;SDS011;9034;50.284;19.310;2022-07-17T01:27:51;3.20;;;2.85;;
17818;SDS011;9034;50.284;19.310;2022-07-17T01:28:54;4.80;;;2.75;;
17818;SDS011;9034;50.284;19.310;2022-07-17T01:29:58;3.50;;;2.28;;
17818;SDS011;9034;50.284;19.310;2022-07-17T01:31:02;2.63;;;2.40;;
17818;SDS011;9034;50.284;19.310;2022-07-17T01:32:06;2.90;;;2.67;;
17818;SDS011;9034;50.284;19.310;2022-07-17T01:33:09;2.95;;;2.67;;
17818;SDS011;9034;50.284;19.310;2022-07-17T01:34:14;5.85;;;2.80;;
17818;SDS011;9034;50.284;19.310;2022-07-17T01:35:17;2.53;;;2.25;;
17818;SDS011;9034;50.284;19.310;2022-07-17T01:36:23;3.50;;;2.30;;
17818;SDS011;9034;50.284;19.310;2022-07-17T01:37:27;4.60;;;2.90;;
17818;SDS011;9034;50.284;19.310;2022-07-17T01:38:31;2.75;;;2.55;;
17818;SDS011;9034;50.284;19.310;2022-07-17T01:39:34;2.60;;;2.40;;
17818;SDS011;9034;50.284;19.310;2022-07-17T01:40:56;2.38;;;2.17;;
17818;SDS011;9034;50.284;19.310;2022-07-17T01:42:00;2.50;;;2.30;;
17818;SDS011;9034;50.284;19.310;2022-07-17T01:43:03;2.67;;;2.20;;
17818;SDS011;9034;50.284;19.310;2022-07-17T01:44:07;3.55;;;2.20;;
17818;SDS011;9034;50.284;19.310;2022-07-17T01:45:11;7.35;;;3.78;;
17818;SDS011;9034;50.284;19.310;2022-07-17T01:46:16;46.58;;;8.52;;
17818;SDS011;9034;50.284;19.310;2022-07-17T01:47:21;6.72;;;2.92;;
17818;SDS011;9034;50.284;19.310;2022-07-17T01:48:26;12.55;;;3.38;;
17818;SDS011;9034;50.284;19.310;2022-07-17T01:49:30;31.40;;;5.30;;
17818;SDS011;9034;50.284;19.310;2022-07-17T01:50:34;14.02;;;2.90;;
17818;SDS011;9034;50.284;19.310;2022-07-17T01:51:40;15.52;;;3.80;;
17818;SDS011;9034;50.284;19.310;2022-07-17T01:52:43;3.05;;;2.35;;
17818;SDS011;9034;50.284;19.310;2022-07-17T01:53:47;8.27;;;2.63;;
17818;SDS011;9034;50.284;19.310;2022-07-17T01:54:51;5.88;;;3.28;;
17818;SDS011;9034;50.284;19.310;2022-07-17T01:55:55;3.00;;;2.25;;
17818;SDS011;9034;50.284;19.310;2022-07-17T01:57:00;2.92;;;2.33;;
17818;SDS011;9034;50.284;19.310;2022-07-17T01:58:04;9.15;;;2.85;;
17818;SDS011;9034;50.284;19.310;2022-07-17T01:59:08;3.97;;;2.20;;
17818;SDS011;9034;50.284;19.310;2022-07-17T02:00:13;7.95;;;2.60;;
17818;SDS011;9034;50.284;19.310;2022-07-17T02:01:18;6.47;;;2.55;;
17818;SDS011;9034;50.284;19.310;2022-07-17T02:02:22;4.53;;;2.70;;
17818;SDS011;9034;50.284;19.310;2022-07-17T02:03:26;13.93;;;2.83;;
17818;SDS011;9034;50.284;19.310;2022-07-17T02:04:29;4.20;;;3.05;;
17818;SDS011;9034;50.284;19.310;2022-07-17T02:05:33;5.00;;;2.40;;
17818;SDS011;9034;50.284;19.310;2022-07-17T02:06:38;3.33;;;2.75;;
17818;SDS011;9034;50.284;19.310;2022-07-17T02:07:43;8.85;;;3.33;;
17818;SDS011;9034;50.284;19.310;2022-07-17T02:08:47;4.78;;;3.03;;
17818;SDS011;9034;50.284;19.310;2022-07-17T02:09:53;3.08;;;2.30;;
17818;SDS011;9034;50.284;19.310;2022-07-17T02:10:57;2.75;;;2.55;;
17818;SDS011;9034;50.284;19.310;2022-07-17T02:12:01;2.97;;;2.67;;
17818;SDS011;9034;50.284;19.310;2022-07-17T02:13:06;2.60;;;2.35;;
17818;SDS011;9034;50.284;19.310;2022-07-17T02:14:09;3.75;;;2.97;;
17818;SDS011;9034;50.284;19.310;2022-07-17T02:15:13;7.38;;;4.10;;
17818;SDS011;9034;50.284;19.310;2022-07-17T02:16:16;6.00;;;3.75;;
17818;SDS011;9034;50.284;19.310;2022-07-17T02:17:20;6.97;;;3.13;;
17818;SDS011;9034;50.284;19.310;2022-07-17T02:18:23;8.90;;;3.58;;
17818;SDS011;9034;50.284;19.310;2022-07-17T02:19:28;7.15;;;2.58;;
17818;SDS011;9034;50.284;19.310;2022-07-17T02:20:31;4.20;;;2.25;;
17818;SDS011;9034;50.284;19.310;2022-07-17T02:21:36;3.15;;;2.65;;
17818;SDS011;9034;50.284;19.310;2022-07-17T02:22:41;3.28;;;2.97;;
17818;SDS011;9034;50.284;19.310;2022-07-17T02:23:45;2.67;;;2.47;;
17818;SDS011;9034;50.284;19.310;2022-07-17T02:24:48;1.80;;;1.42;;
17818;SDS011;9034;50.284;19.310;2022-07-17T02:25:53;2.28;;;1.98;;
17818;SDS011;9034;50.284;19.310;2022-07-17T02:26:56;2.40;;;2.20;;
17818;SDS011;9034;50.284;19.310;2022-07-17T02:28:00;2.35;;;2.10;;
17818;SDS011;9034;50.284;19.310;2022-07-17T02:29:03;2.80;;;2.55;;
17818;SDS011;9034;50.284;19.310;2022-07-17T02:30:08;5.60;;;2.60;;
17818;SDS011;9034;50.284;19.310;2022-07-17T02:31:13;3.10;;;1.90;;
17818;SDS011;9034;50.284;19.310;2022-07-17T02:32:17;3.97;;;2.53;;
17818;SDS011;9034;50.284;19.310;2022-07-17T02:33:20;3.58;;;2.10;;
17818;SDS011;9034;50.284;19.310;2022-07-17T02:34:25;2.83;;;2.33;;
17818;SDS011;9034;50.284;19.310;2022-07-17T02:35:28;4.28;;;2.60;;
17818;SDS011;9034;50.284;19.310;2022-07-17T02:36:32;3.40;;;3.10;;
17818;SDS011;9034;50.284;19.310;2022-07-17T02:37:35;4.13;;;2.97;;
17818;SDS011;9034;50.284;19.310;2022-07-17T02:38:41;3.05;;;2.67;;
17818;SDS011;9034;50.284;19.310;2022-07-17T02:39:44;3.72;;;2.85;;
17818;SDS011;9034;50.284;19.310;2022-07-17T02:40:55;3.53;;;3.08;;
17818;SDS011;9034;50.284;19.310;2022-07-17T02:41:58;3.58;;;2.90;;
17818;SDS011;9034;50.284;19.310;2022-07-17T02:43:03;3.40;;;2.78;;
17818;SDS011;9034;50.284;19.310;2022-07-17T02:44:07;2.45;;;2.17;;
17818;SDS011;9034;50.284;19.310;2022-07-17T02:45:10;3.53;;;2.80;;
17818;SDS011;9034;50.284;19.310;2022-07-17T02:46:14;6.93;;;2.33;;
17818;SDS011;9034;50.284;19.310;2022-07-17T02:47:21;6.03;;;2.95;;
17818;SDS011;9034;50.284;19.310;2022-07-17T02:48:25;3.25;;;2.95;;
17818;SDS011;9034;50.284;19.310;2022-07-17T02:49:29;4.60;;;2.80;;
17818;SDS011;9034;50.284;19.310;2022-07-17T02:50:33;4.57;;;3.17;;
17818;SDS011;9034;50.284;19.310;2022-07-17T02:51:36;31.45;;;4.72;;
17818;SDS011;9034;50.284;19.310;2022-07-17T02:52:40;6.20;;;2.63;;
17818;SDS011;9034;50.284;19.310;2022-07-17T02:53:47;43.08;;;5.78;;
17818;SDS011;9034;50.284;19.310;2022-07-17T02:54:51;25.02;;;5.28;;
17818;SDS011;9034;50.284;19.310;2022-07-17T02:55:54;5.90;;;3.85;;
17818;SDS011;9034;50.284;19.310;2022-07-17T02:56:58;16.02;;;3.88;;
17818;SDS011;9034;50.284;19.310;2022-07-17T02:58:02;3.78;;;3.17;;
17818;SDS011;9034;50.284;19.310;2022-07-17T02:59:06;7.40;;;2.58;;
17818;SDS011;9034;50.284;19.310;2022-07-17T03:00:10;6.07;;;3.05;;
17818;SDS011;9034;50.284;19.310;2022-07-17T03:01:17;4.78;;;3.10;;
17818;SDS011;9034;50.284;19.310;2022-07-17T03:02:21;4.13;;;3.30;;
17818;SDS011;9034;50.284;19.310;2022-07-17T03:03:25;2.95;;;2.65;;
17818;SDS011;9034;50.284;19.310;2022-07-17T03:04:28;6.75;;;3.47;;
17818;SDS011;9034;50.284;19.310;2022-07-17T03:05:33;5.15;;;3.72;;
17818;SDS011;9034;50.284;19.310;2022-07-17T03:06:36;4.55;;;3.00;;
17818;SDS011;9034;50.284;19.310;2022-07-17T03:07:40;6.03;;;3.30;;
17818;SDS011;9034;50.284;19.310;2022-07-17T03:08:43;6.03;;;3.42;;
17818;SDS011;9034;50.284;19.310;2022-07-17T03:09:49;7.90;;;3.20;;
17818;SDS011;9034;50.284;19.310;2022-07-17T03:10:52;10.50;;;5.35;;
17818;SDS011;9034;50.284;19.310;2022-07-17T03:11:56;12.27;;;6.13;;
17818;SDS011;9034;50.284;19.310;2022-07-17T03:12:59;12.63;;;3.58;;
17818;SDS011;9034;50.284;19.310;2022-07-17T03:14:03;4.88;;;3.70;;
17818;SDS011;9034;50.284;19.310;2022-07-17T03:15:06;7.13;;;4.47;;
17818;SDS011;9034;50.284;19.310;2022-07-17T03:16:13;7.55;;;4.57;;
17818;SDS011;9034;50.284;19.310;2022-07-17T03:17:17;4.90;;;3.65;;
17818;SDS011;9034;50.284;19.310;2022-07-17T03:18:21;3.92;;;3.35;;
17818;SDS011;9034;50.284;19.310;2022-07-17T03:19:24;4.47;;;3.20;;
17818;SDS011;9034;50.284;19.310;2022-07-17T03:20:28;4.88;;;3.17;;
17818;SDS011;9034;50.284;19.310;2022-07-17T03:21:31;4.28;;;3.00;;
17818;SDS011;9034;50.284;19.310;2022-07-17T03:22:35;7.20;;;4.25;;
17818;SDS011;9034;50.284;19.310;2022-07-17T03:23:38;4.57;;;3.75;;
17818;SDS011;9034;50.284;19.310;2022-07-17T03:24:42;6.25;;;4.97;;
17818;SDS011;9034;50.284;19.310;2022-07-17T03:25:47;4.43;;;3.83;;
17818;SDS011;9034;50.284;19.310;2022-07-17T03:26:51;8.55;;;6.30;;
17818;SDS011;9034;50.284;19.310;2022-07-17T03:27:54;7.70;;;4.75;;
17818;SDS011;9034;50.284;19.310;2022-07-17T03:28:58;4.30;;;3.75;;
17818;SDS011;9034;50.284;19.310;2022-07-17T03:30:01;8.80;;;5.20;;
17818;SDS011;9034;50.284;19.310;2022-07-17T03:31:06;9.23;;;5.72;;
17818;SDS011;9034;50.284;19.310;2022-07-17T03:32:09;5.25;;;4.20;;
17818;SDS011;9034;50.284;19.310;2022-07-17T03:33:14;9.00;;;5.85;;
17818;SDS011;9034;50.284;19.310;2022-07-17T03:34:18;11.98;;;4.40;;
17818;SDS011;9034;50.284;19.310;2022-07-17T03:35:21;3.38;;;2.75;;
17818;SDS011;9034;50.284;19.310;2022-07-17T03:36:25;4.28;;;3.33;;
17818;SDS011;9034;50.284;19.310;2022-07-17T03:37:29;5.85;;;2.80;;
17818;SDS011;9034;50.284;19.310;2022-07-17T03:38:32;10.52;;;4.15;;
17818;SDS011;9034;50.284;19.310;2022-07-17T03:39:36;7.10;;;4.20;;
17818;SDS011;9034;50.284;19.310;2022-07-17T03:40:40;6.90;;;3.88;;
17818;SDS011;9034;50.284;19.310;2022-07-17T03:41:45;5.88;;;4.32;;
17818;SDS011;9034;50.284;19.310;2022-07-17T03:42:48;4.05;;;3.10;;
17818;SDS011;9034;50.284;19.310;2022-07-17T03:43:52;3.92;;;3.55;;
17818;SDS011;9034;50.284;19.310;2022-07-17T03:44:56;7.40;;;4.65;;
17818;SDS011;9034;50.284;19.310;2022-07-17T03:46:00;8.57;;;5.68;;
17818;SDS011;9034;50.284;19.310;2022-07-17T03:47:03;9.00;;;5.55;;
17818;SDS011;9034;50.284;19.310;2022-07-17T03:48:07;9.23;;;5.32;;
17818;SDS011;9034;50.284;19.310;2022-07-17T03:49:10;5.70;;;5.10;;
17818;SDS011;9034;50.284;19.310;2022-07-17T03:50:15;6.80;;;4.47;;
17818;SDS011;9034;50.284;19.310;2022-07-17T03:51:18;7.85;;;5.82;;
17818;SDS011;9034;50.284;19.310;2022-07-17T03:52:22;6.72;;;5.25;;
17818;SDS011;9034;50.284;19.310;2022-07-17T03:53:25;6.85;;;4.75;;
17818;SDS011;9034;50.284;19.310;2022-07-17T03:54:29;6.65;;;4.80;;
17818;SDS011;9034;50.284;19.310;2022-07-17T03:55:33;6.88;;;5.35;;
17818;SDS011;9034;50.284;19.310;2022-07-17T03:56:38;8.90;;;5.43;;
17818;SDS011;9034;50.284;19.310;2022-07-17T03:57:42;6.88;;;4.60;;
17818;SDS011;9034;50.284;19.310;2022-07-17T03:58:46;8.30;;;5.10;;
17818;SDS011;9034;50.284;19.310;2022-07-17T03:59:50;8.18;;;5.07;;
17818;SDS011;9034;50.284;19.310;2022-07-17T04:00:54;9.55;;;5.53;;
17818;SDS011;9034;50.284;19.310;2022-07-17T04:01:57;10.32;;;5.45;;
17818;SDS011;9034;50.284;19.310;2022-07-17T04:03:01;7.50;;;5.15;;
17818;SDS011;9034;50.284;19.310;2022-07-17T04:04:04;11.18;;;5.93;;
17818;SDS011;9034;50.284;19.310;2022-07-17T04:05:08;10.25;;;7.25;;
17818;SDS011;9034;50.284;19.310;2022-07-17T04:06:12;13.80;;;9.25;;
17818;SDS011;9034;50.284;19.310;2022-07-17T04:07:16;17.08;;;9.25;;
17818;SDS011;9034;50.284;19.310;2022-07-17T04:08:31;14.35;;;9.25;;
17818;SDS011;9034;50.284;19.310;2022-07-17T04:09:35;16.70;;;9.60;;
17818;SDS011;9034;50.284;19.310;2022-07-17T04:10:38;15.27;;;9.93;;
17818;SDS011;9034;50.284;19.310;2022-07-17T04:11:43;14.40;;;9.88;;
17818;SDS011;9034;50.284;19.310;2022-07-17T04:12:47;18.70;;;11.40;;
17818;SDS011;9034;50.284;19.310;2022-07-17T04:13:51;14.27;;;10.27;;
17818;SDS011;9034;50.284;19.310;2022-07-17T04:14:55;21.52;;;12.18;;
17818;SDS011;9034;50.284;19.310;2022-07-17T04:15:59;18.02;;;12.52;;
17818;SDS011;9034;50.284;19.310;2022-07-17T04:17:03;17.30;;;13.55;;
17818;SDS011;9034;50.284;19.310;2022-07-17T04:18:07;19.77;;;13.82;;
17818;SDS011;9034;50.284;19.310;2022-07-17T04:19:11;20.10;;;14.70;;
17818;SDS011;9034;50.284;19.310;2022-07-17T04:20:15;20.33;;;13.93;;
17818;SDS011;9034;50.284;19.310;2022-07-17T04:21:18;21.98;;;13.48;;
17818;SDS011;9034;50.284;19.310;2022-07-17T04:22:22;21.02;;;13.82;;
17818;SDS011;9034;50.284;19.310;2022-07-17T04:23:26;21.98;;;15.05;;
17818;SDS011;9034;50.284;19.310;2022-07-17T04:24:30;19.90;;;13.35;;
17818;SDS011;9034;50.284;19.310;2022-07-17T04:25:34;21.95;;;14.55;;
17818;SDS011;9034;50.284;19.310;2022-07-17T04:26:37;22.27;;;15.68;;
17818;SDS011;9034;50.284;19.310;2022-07-17T04:27:41;24.50;;;16.42;;
17818;SDS011;9034;50.284;19.310;2022-07-17T04:28:46;22.90;;;15.95;;
17818;SDS011;9034;50.284;19.310;2022-07-17T04:29:50;22.70;;;16.23;;
17818;SDS011;9034;50.284;19.310;2022-07-17T04:30:53;23.23;;;15.93;;
17818;SDS011;9034;50.284;19.310;2022-07-17T04:31:58;25.10;;;15.95;;
17818;SDS011;9034;50.284;19.310;2022-07-17T04:33:01;22.25;;;14.75;;
17818;SDS011;9034;50.284;19.310;2022-07-17T04:34:06;23.63;;;15.32;;
17818;SDS011;9034;50.284;19.310;2022-07-17T04:35:09;20.05;;;14.68;;
17818;SDS011;9034;50.284;19.310;2022-07-17T04:36:14;25.48;;;15.02;;
17818;SDS011;9034;50.284;19.310;2022-07-17T04:37:18;16.63;;;13.25;;
17818;SDS011;9034;50.284;19.310;2022-07-17T04:38:22;21.60;;;14.23;;
17818;SDS011;9034;50.284;19.310;2022-07-17T04:39:26;19.20;;;13.80;;
17818;SDS011;9034;50.284;19.310;2022-07-17T04:40:30;20.13;;;13.65;;
17818;SDS011;9034;50.284;19.310;2022-07-17T04:41:33;19.15;;;14.32;;
17818;SDS011;9034;50.284;19.310;2022-07-17T04:42:38;23.83;;;15.20;;
17818;SDS011;9034;50.284;19.310;2022-07-17T04:43:41;24.95;;;14.18;;
17818;SDS011;9034;50.284;19.310;2022-07-17T04:44:46;24.60;;;14.55;;
17818;SDS011;9034;50.284;19.310;2022-07-17T04:45:50;24.27;;;15.02;;
17818;SDS011;9034;50.284;19.310;2022-07-17T04:46:54;24.50;;;14.20;;
17818;SDS011;9034;50.284;19.310;2022-07-17T04:47:58;20.52;;;13.30;;
17818;SDS011;9034;50.284;19.310;2022-07-17T04:49:02;23.23;;;14.13;;
17818;SDS011;9034;50.284;19.310;2022-07-17T04:50:06;21.23;;;13.70;;
17818;SDS011;9034;50.284;19.310;2022-07-17T04:51:10;21.52;;;13.27;;
17818;SDS011;9034;50.284;19.310;2022-07-17T04:52:13;19.65;;;12.00;;
17818;SDS011;9034;50.284;19.310;2022-07-17T04:53:18;21.05;;;13.27;;
17818;SDS011;9034;50.284;19.310;2022-07-17T04:54:25;21.15;;;12.10;;
17818;SDS011;9034;50.284;19.310;2022-07-17T04:55:29;20.73;;;12.63;;
17818;SDS011;9034;50.284;19.310;2022-07-17T04:56:32;24.83;;;12.68;;
17818;SDS011;9034;50.284;19.310;2022-07-17T04:57:37;20.15;;;12.68;;
17818;SDS011;9034;50.284;19.310;2022-07-17T04:58:40;21.30;;;11.95;;
17818;SDS011;9034;50.284;19.310;2022-07-17T04:59:44;23.30;;;13.60;;
17818;SDS011;9034;50.284;19.310;2022-07-17T05:00:49;19.02;;;11.90;;
17818;SDS011;9034;50.284;19.310;2022-07-17T05:01:53;22.13;;;14.15;;
17818;SDS011;9034;50.284;19.310;2022-07-17T05:02:56;22.08;;;13.52;;
17818;SDS011;9034;50.284;19.310;2022-07-17T05:04:01;24.65;;;15.35;;
17818;SDS011;9034;50.284;19.310;2022-07-17T05:05:07;23.45;;;15.98;;
17818;SDS011;9034;50.284;19.310;2022-07-17T05:06:11;24.65;;;15.15;;
17818;SDS011;9034;50.284;19.310;2022-07-17T05:07:14;19.52;;;12.65;;
17818;SDS011;9034;50.284;19.310;2022-07-17T05:08:19;20.77;;;13.32;;
17818;SDS011;9034;50.284;19.310;2022-07-17T05:09:23;20.52;;;13.05;;
17818;SDS011;9034;50.284;19.310;2022-07-17T05:10:26;17.42;;;11.15;;
17818;SDS011;9034;50.284;19.310;2022-07-17T05:11:30;18.35;;;11.35;;
17818;SDS011;9034;50.284;19.310;2022-07-17T05:12:34;15.35;;;8.40;;
17818;SDS011;9034;50.284;19.310;2022-07-17T05:13:38;16.23;;;9.55;;
17818;SDS011;9034;50.284;19.310;2022-07-17T05:14:42;15.10;;;8.45;;
17818;SDS011;9034;50.284;19.310;2022-07-17T05:15:46;14.50;;;7.88;;
17818;SDS011;9034;50.284;19.310;2022-07-17T05:16:50;14.82;;;6.15;;
17818;SDS011;9034;50.284;19.310;2022-07-17T05:17:55;12.85;;;7.10;;
17818;SDS011;9034;50.284;19.310;2022-07-17T05:18:58;12.45;;;6.97;;
17818;SDS011;9034;50.284;19.310;2022-07-17T05:20:04;10.65;;;6.35;;
17818;SDS011;9034;50.284;19.310;2022-07-17T05:21:08;9.82;;;5.65;;
17818;SDS011;9034;50.284;19.310;2022-07-17T05:22:12;9.20;;;4.93;;
17818;SDS011;9034;50.284;19.310;2022-07-17T05:23:15;7.88;;;5.45;;
17818;SDS011;9034;50.284;19.310;2022-07-17T05:24:20;10.70;;;7.00;;
17818;SDS011;9034;50.284;19.310;2022-07-17T05:25:23;11.82;;;7.93;;
17818;SDS011;9034;50.284;19.310;2022-07-17T05:26:27;15.60;;;8.68;;
17818;SDS011;9034;50.284;19.310;2022-07-17T05:27:32;17.38;;;11.45;;
17818;SDS011;9034;50.284;19.310;2022-07-17T05:28:35;8.45;;;5.03;;
17818;SDS011;9034;50.284;19.310;2022-07-17T05:29:39;6.47;;;3.70;;
17818;SDS011;9034;50.284;19.310;2022-07-17T05:30:43;5.78;;;3.00;;
17818;SDS011;9034;50.284;19.310;2022-07-17T05:31:47;7.78;;;3.67;;
17818;SDS011;9034;50.284;19.310;2022-07-17T05:32:52;10.32;;;5.63;;
17818;SDS011;9034;50.284;19.310;2022-07-17T05:33:56;12.23;;;6.20;;
17818;SDS011;9034;50.284;19.310;2022-07-17T05:34:59;6.45;;;5.32;;
17818;SDS011;9034;50.284;19.310;2022-07-17T05:36:03;7.13;;;3.30;;
17818;SDS011;9034;50.284;19.310;2022-07-17T05:37:08;5.30;;;3.03;;
17818;SDS011;9034;50.284;19.310;2022-07-17T05:38:11;4.50;;;4.05;;
17818;SDS011;9034;50.284;19.310;2022-07-17T05:39:15;8.02;;;5.00;;
17818;SDS011;9034;50.284;19.310;2022-07-17T05:40:18;6.32;;;3.67;;
17818;SDS011;9034;50.284;19.310;2022-07-17T05:41:23;3.88;;;3.25;;
17818;SDS011;9034;50.284;19.310;2022-07-17T05:42:26;5.70;;;3.10;;
17818;SDS011;9034;50.284;19.310;2022-07-17T05:43:36;5.55;;;2.38;;
17818;SDS011;9034;50.284;19.310;2022-07-17T05:44:40;3.90;;;2.25;;
17818;SDS011;9034;50.284;19.310;2022-07-17T05:45:44;6.00;;;2.78;;
17818;SDS011;9034;50.284;19.310;2022-07-17T05:46:47;5.17;;;3.27;;
17818;SDS011;9034;50.284;19.310;2022-07-17T05:47:53;4.20;;;2.87;;
17818;SDS011;9034;50.284;19.310;2022-07-17T05:48:56;3.03;;;2.10;;
17818;SDS011;9034;50.284;19.310;2022-07-17T05:50:00;4.57;;;1.97;;
17818;SDS011;9034;50.284;19.310;2022-07-17T05:51:03;3.13;;;2.50;;
17818;SDS011;9034;50.284;19.310;2022-07-17T05:52:13;3.83;;;2.20;;
17818;SDS011;9034;50.284;19.310;2022-07-17T05:53:16;2.97;;;2.30;;
17818;SDS011;9034;50.284;19.310;2022-07-17T05:54:20;5.97;;;2.40;;
17818;SDS011;9034;50.284;19.310;2022-07-17T05:55:23;3.27;;;2.00;;
17818;SDS011;9034;50.284;19.310;2022-07-17T05:56:27;6.83;;;3.20;;
17818;SDS011;9034;50.284;19.310;2022-07-17T05:57:31;4.43;;;2.40;;
17818;SDS011;9034;50.284;19.310;2022-07-17T05:58:35;3.27;;;1.90;;
17818;SDS011;9034;50.284;19.310;2022-07-17T05:59:38;3.47;;;2.20;;
17818;SDS011;9034;50.284;19.310;2022-07-17T06:00:42;5.57;;;2.03;;
17818;SDS011;9034;50.284;19.310;2022-07-17T06:01:47;3.70;;;1.90;;
17818;SDS011;9034;50.284;19.310;2022-07-17T06:02:52;3.27;;;1.93;;
17818;SDS011;9034;50.284;19.310;2022-07-17T06:03:56;4.17;;;1.77;;
17818;SDS011;9034;50.284;19.310;2022-07-17T06:05:00;3.10;;;1.60;;
17818;SDS011;9034;50.284;19.310;2022-07-17T06:06:03;2.47;;;1.60;;
17818;SDS011;9034;50.284;19.310;2022-07-17T06:07:08;3.63;;;1.80;;
17818;SDS011;9034;50.284;19.310;2022-07-17T06:08:12;3.67;;;1.70;;
17818;SDS011;9034;50.284;19.310;2022-07-17T06:09:15;5.00;;;2.23;;
17818;SDS011;9034;50.284;19.310;2022-07-17T06:10:19;2.70;;;1.70;;
17818;SDS011;9034;50.284;19.310;2022-07-17T06:11:22;2.87;;;1.70;;
17818;SDS011;9034;50.284;19.310;2022-07-17T06:12:33;9.87;;;6.63;;
17818;SDS011;9034;50.284;19.310;2022-07-17T06:13:37;10.47;;;7.30;;
17818;SDS011;9034;50.284;19.310;2022-07-17T06:14:41;12.87;;;8.10;;
17818;SDS011;9034;50.284;19.310;2022-07-17T06:15:45;5.00;;;2.50;;
17818;SDS011;9034;50.284;19.310;2022-07-17T06:16:49;3.63;;;1.83;;
17818;SDS011;9034;50.284;19.310;2022-07-17T06:17:54;4.83;;;2.13;;
17818;SDS011;9034;50.284;19.310;2022-07-17T06:18:57;1.73;;;1.40;;
17818;SDS011;9034;50.284;19.310;2022-07-17T06:20:02;6.20;;;2.43;;
17818;SDS011;9034;50.284;19.310;2022-07-17T06:21:05;5.50;;;2.53;;
17818;SDS011;9034;50.284;19.310;2022-07-17T06:22:09;5.23;;;2.10;;
17818;SDS011;9034;50.284;19.310;2022-07-17T06:23:13;2.37;;;1.90;;
17818;SDS011;9034;50.284;19.310;2022-07-17T06:24:17;3.30;;;1.97;;
17818;SDS011;9034;50.284;19.310;2022-07-17T06:25:20;2.17;;;1.90;;
17818;SDS011;9034;50.284;19.310;2022-07-17T06:26:24;3.67;;;2.07;;